Time;durP1;ratioP1;P1;durP2;ratioP2;P2;SDS_P1;SDS_P2;PMS_P1;PMS_P2;Temp;Humidity;BMP_temperature;BMP_pressure;BME280_temperature;BME280_humidity;BME280_pressure;Samples;Min_cycle;Max_cycle;Signal;HPM_P1;HPM_P2
2023/01/01 00:02:00;;;;;;;1.92;0.57;;;13.80;99.90;;;;;;5029282;28;20476;-69
2023/01/01 00:04:26;;;;;;;3.92;2.95;;;13.80;99.90;;;;;;5045280;28;20045;-70
2023/01/01 00:06:52;;;;;;;0.52;0.52;;;13.80;99.90;;;;;;5029281;28;20034;-70
2023/01/01 00:12:02;;;;;;;0.90;0.80;;;13.80;99.90;;;;;;5029504;28;20049;-69
2023/01/01 00:14:27;;;;;;;0.68;0.68;;;13.80;99.90;;;;;;5028471;28;20053;-69
2023/01/01 00:16:54;;;;;;;2.38;2.22;;;13.80;99.90;;;;;;5026967;28;20107;-69
2023/01/01 00:19:20;;;;;;;1.27;1.25;;;13.80;99.90;;;;;;5028034;28;20045;-70
2023/01/01 00:21:45;;;;;;;0.88;0.88;;;13.80;99.90;;;;;;5024011;28;20102;-69
2023/01/01 00:24:11;;;;;;;5.10;3.03;;;13.80;99.90;;;;;;5027299;28;20037;-70
2023/01/01 00:26:37;;;;;;;34.30;2.55;;;13.90;99.90;;;;;;5028427;28;20720;-69
2023/01/01 00:29:03;;;;;;;21.35;2.85;;;14.00;99.90;;;;;;5026821;28;20443;-69
2023/01/01 00:31:30;;;;;;;4.47;2.58;;;13.90;99.90;;;;;;5026430;28;20444;-69
2023/01/01 00:33:56;;;;;;;1.80;1.70;;;13.90;99.90;;;;;;5027467;28;20050;-69
2023/01/01 00:36:24;;;;;;;0.93;0.55;;;13.90;99.90;;;;;;5027917;28;20116;-69
2023/01/01 00:38:50;;;;;;;3.20;2.15;;;13.90;99.90;;;;;;5012946;28;20053;-70
2023/01/01 00:41:16;;;;;;;0.65;0.65;;;13.80;99.90;;;;;;5016444;28;20042;-69
2023/01/01 00:43:42;;;;;;;2.72;2.53;;;13.90;99.90;;;;;;5027613;28;20033;-69
2023/01/01 00:46:08;;;;;;;0.45;0.45;;;13.90;99.90;;;;;;5027076;28;20052;-69
2023/01/01 00:48:34;;;;;;;2.28;1.85;;;13.90;99.90;;;;;;5026734;28;20073;-69
2023/01/01 00:51:00;;;;;;;0.20;0.20;;;13.90;99.90;;;;;;5025173;28;20408;-68
2023/01/01 00:53:26;;;;;;;1.10;1.00;;;13.90;99.90;;;;;;5026956;28;20045;-69
2023/01/01 00:55:53;;;;;;;2.30;1.63;;;13.80;99.90;;;;;;5025876;28;20121;-69
2023/01/01 00:58:19;;;;;;;16.73;1.17;;;13.70;99.90;;;;;;5027473;28;20060;-69
2023/01/01 01:00:45;;;;;;;5.22;1.55;;;13.70;99.90;;;;;;5026652;28;20033;-69
2023/01/01 01:03:26;;;;;;;0.68;0.68;;;13.70;99.90;;;;;;5026638;28;20046;-69
2023/01/01 01:05:54;;;;;;;2.25;1.77;;;13.70;99.90;;;;;;5041337;28;20056;-69
2023/01/01 01:08:20;;;;;;;0.47;0.47;;;13.70;99.90;;;;;;5027056;28;20041;-70
2023/01/01 01:10:45;;;;;;;1.02;0.93;;;13.70;99.90;;;;;;5023940;28;20099;-69
2023/01/01 01:13:11;;;;;;;0.20;0.20;;;13.60;99.90;;;;;;5024977;28;20128;-69
2023/01/01 01:15:37;;;;;;;0.55;0.50;;;13.50;99.90;;;;;;5026340;28;20045;-69
2023/01/01 01:18:02;;;;;;;0.57;0.57;;;13.30;99.90;;;;;;5025768;28;20081;-69
2023/01/01 01:20:28;;;;;;;3.92;3.35;;;13.20;99.90;;;;;;5026723;28;20101;-69
2023/01/01 01:22:53;;;;;;;0.20;0.20;;;13.10;99.90;;;;;;5024901;28;20543;-71
2023/01/01 01:25:19;;;;;;;0.10;0.10;;;13.00;99.90;;;;;;5026193;28;20056;-71
2023/01/01 01:27:45;;;;;;;1.52;1.45;;;12.90;99.90;;;;;;5025083;28;20748;-72
2023/01/01 01:30:11;;;;;;;1.30;1.20;;;12.80;99.90;;;;;;5027687;28;20460;-73
2023/01/01 01:32:37;;;;;;;0.20;0.20;;;12.70;99.90;;;;;;5027292;28;20037;-73
2023/01/01 01:35:02;;;;;;;0.10;0.10;;;12.60;99.90;;;;;;5025265;28;20041;-73
2023/01/01 01:37:28;;;;;;;1.55;0.75;;;12.50;99.90;;;;;;5026573;28;20047;-73
2023/01/01 01:39:53;;;;;;;1.65;1.55;;;12.50;99.90;;;;;;5025811;28;20048;-73
2023/01/01 01:42:19;;;;;;;2.88;1.20;;;12.40;99.90;;;;;;5028610;28;20046;-72
2023/01/01 01:44:47;;;;;;;0.65;0.65;;;12.40;99.90;;;;;;5025563;28;20080;-73
2023/01/01 01:47:36;;;;;;;2.17;1.27;;;12.40;99.90;;;;;;5023979;28;20121;-73
2023/01/01 01:50:17;;;;;;;0.65;0.65;;;12.30;99.90;;;;;;5026875;28;20064;-73
2023/01/01 01:53:17;;;;;;;7.97;0.88;;;12.30;99.90;;;;;;5023023;28;20048;-74
2023/01/01 01:55:49;;;;;;;0.38;0.38;;;12.30;99.90;;;;;;5026065;28;20401;-74
2023/01/01 01:58:15;;;;;;;0.32;0.32;;;12.30;99.90;;;;;;5026862;28;20049;-73
2023/01/01 02:00:41;;;;;;;3.72;1.85;;;12.30;99.90;;;;;;5025016;28;20041;-72
2023/01/01 02:03:11;;;;;;;2.78;1.00;;;12.30;99.90;;;;;;5027128;28;20061;-73
2023/01/01 02:05:40;;;;;;;0.30;0.30;;;12.30;99.90;;;;;;5021548;28;20050;-74
2023/01/01 02:08:07;;;;;;;10.43;2.80;;;12.30;99.90;;;;;;5023767;28;20409;-73
2023/01/01 02:10:33;;;;;;;2.45;2.25;;;12.30;99.90;;;;;;5024670;28;20034;-74
2023/01/01 02:12:59;;;;;;;0.10;0.10;;;12.20;99.90;;;;;;5025542;28;20072;-73
2023/01/01 02:15:29;;;;;;;1.00;1.00;;;12.20;99.90;;;;;;5022069;28;20041;-74
2023/01/01 02:18:15;;;;;;;0.10;0.10;;;12.20;99.90;;;;;;5027568;28;20071;-74
2023/01/01 02:21:05;;;;;;;5.40;1.38;;;12.20;99.90;;;;;;5025960;28;20045;-74
2023/01/01 02:23:57;;;;;;;0.10;0.10;;;12.20;99.90;;;;;;5023906;28;20041;-74
2023/01/01 02:26:37;;;;;;;0.10;0.10;;;12.10;99.90;;;;;;5017236;28;20049;-75
2023/01/01 02:29:09;;;;;;;1.15;1.13;;;12.10;99.90;;;;;;5020562;28;20072;-72
2023/01/01 02:31:43;;;;;;;1.70;1.60;;;12.10;99.90;;;;;;5024137;28;20049;-72
2023/01/01 02:34:13;;;;;;;5.07;2.72;;;12.10;99.90;;;;;;5024550;28;20517;-72
2023/01/01 02:36:47;;;;;;;0.55;0.55;;;12.10;99.90;;;;;;5024379;28;20067;-72
2023/01/01 02:39:14;;;;;;;5.43;3.05;;;12.10;99.90;;;;;;5025503;28;20053;-73
2023/01/01 02:41:44;;;;;;;0.10;0.10;;;12.10;99.90;;;;;;5024002;28;20456;-73
2023/01/01 02:44:13;;;;;;;0.40;0.40;;;12.10;99.90;;;;;;5025383;28;20041;-73
2023/01/01 02:46:38;;;;;;;0.43;0.43;;;12.10;99.90;;;;;;5025184;28;20558;-73
2023/01/01 02:49:04;;;;;;;0.82;0.82;;;12.10;99.90;;;;;;5029189;28;20057;-73
2023/01/01 02:51:50;;;;;;;4.63;2.03;;;12.00;99.90;;;;;;5030274;28;20478;-74
2023/01/01 02:54:31;;;;;;;0.10;0.10;;;12.00;99.90;;;;;;5029347;28;20068;-73
2023/01/01 02:57:22;;;;;;;0.63;0.63;;;12.00;99.90;;;;;;5030005;28;20103;-73
2023/01/01 03:02:49;;;;;;;0.55;0.55;;;12.10;99.90;;;;;;5028174;28;20077;-72
2023/01/01 03:05:17;;;;;;;9.32;1.98;;;12.20;99.90;;;;;;5029643;28;20045;-72
2023/01/01 03:08:12;;;;;;;1.00;1.00;;;12.10;99.90;;;;;;5030004;28;20061;-73
2023/01/01 03:10:53;;;;;;;0.00;0.00;;;12.20;99.90;;;;;;5027501;28;20103;-73
2023/01/01 03:13:34;;;;;;;0.40;0.40;;;12.20;99.90;;;;;;5029008;28;20119;-73
2023/01/01 03:16:03;;;;;;;2.10;1.75;;;12.10;99.90;;;;;;5026419;28;20045;-73
2023/01/01 03:18:38;;;;;;;1.25;1.05;;;12.00;99.90;;;;;;5028046;28;20049;-73
2023/01/01 03:21:06;;;;;;;0.45;0.45;;;12.00;99.90;;;;;;5027470;28;20514;-72
2023/01/01 03:23:39;;;;;;;15.20;1.55;;;12.00;99.90;;;;;;5028852;28;20045;-72
2023/01/01 03:26:09;;;;;;;0.57;0.57;;;12.00;99.90;;;;;;5028258;28;20041;-72
2023/01/01 03:28:42;;;;;;;0.30;0.30;;;12.00;99.90;;;;;;5027999;28;20045;-72
2023/01/01 03:31:08;;;;;;;0.40;0.40;;;12.00;99.90;;;;;;5029355;28;20133;-72
2023/01/01 03:33:41;;;;;;;2.13;1.90;;;12.00;99.90;;;;;;5030062;28;20052;-72
2023/01/01 03:36:20;;;;;;;1.23;0.98;;;12.00;99.90;;;;;;5022097;28;20081;-72
2023/01/01 03:39:00;;;;;;;0.90;0.90;;;12.00;99.90;;;;;;5027547;28;20436;-73
2023/01/01 03:41:35;;;;;;;1.98;1.45;;;12.00;99.90;;;;;;5030017;28;20067;-72
2023/01/01 03:44:11;;;;;;;1.20;1.10;;;11.90;99.90;;;;;;5030284;28;20033;-72
2023/01/01 03:46:37;;;;;;;0.65;0.65;;;11.90;99.90;;;;;;5025915;28;20534;-72
2023/01/01 03:49:07;;;;;;;3.50;2.08;;;11.90;99.90;;;;;;5028860;28;20075;-72
2023/01/01 03:51:51;;;;;;;0.40;0.40;;;11.90;99.90;;;;;;5030096;28;20077;-72
2023/01/01 03:54:34;;;;;;;0.80;0.80;;;11.80;99.90;;;;;;5029570;28;20099;-71
2023/01/01 03:57:06;;;;;;;0.10;0.10;;;11.80;99.90;;;;;;5029510;28;20064;-71
2023/01/01 03:59:42;;;;;;;0.10;0.10;;;11.80;99.90;;;;;;5029500;28;20038;-72
2023/01/01 04:02:12;;;;;;;0.55;0.55;;;11.80;99.90;;;;;;5024631;28;20054;-71
2023/01/01 04:04:38;;;;;;;2.53;1.90;;;11.70;99.90;;;;;;5030020;28;20806;-71
2023/01/01 04:07:03;;;;;;;0.15;0.15;;;11.70;99.90;;;;;;5028471;28;20045;-72
2023/01/01 04:09:32;;;;;;;0.10;0.10;;;11.70;99.90;;;;;;5023922;28;20541;-72
2023/01/01 04:12:03;;;;;;;0.88;0.73;;;11.70;99.90;;;;;;5025393;28;20601;-71
2023/01/01 04:14:38;;;;;;;0.52;0.52;;;11.70;99.90;;;;;;5027552;28;20092;-72
2023/01/01 04:17:05;;;;;;;12.13;2.88;;;11.70;99.90;;;;;;5026010;28;20889;-72
2023/01/01 04:19:31;;;;;;;0.85;0.85;;;11.70;99.90;;;;;;5026694;28;20071;-71
2023/01/01 04:21:58;;;;;;;2.67;1.40;;;11.70;99.90;;;;;;5028222;28;20030;-72
2023/01/01 04:24:24;;;;;;;10.80;1.17;;;11.70;99.90;;;;;;5026066;28;20045;-72
2023/01/01 04:26:51;;;;;;;0.20;0.20;;;11.70;99.90;;;;;;5028975;28;20030;-72
2023/01/01 04:29:17;;;;;;;0.60;0.32;;;11.70;99.90;;;;;;5028928;28;20049;-72
2023/01/01 04:31:43;;;;;;;1.30;1.23;;;11.70;99.90;;;;;;5023075;28;20050;-71
2023/01/01 04:34:09;;;;;;;3.25;2.63;;;11.70;99.90;;;;;;5043580;28;20049;-71
2023/01/01 04:36:34;;;;;;;0.22;0.22;;;11.70;99.90;;;;;;5026220;28;20053;-71
2023/01/01 04:39:00;;;;;;;3.30;1.15;;;11.70;99.90;;;;;;5027943;28;20033;-71
2023/01/01 04:41:26;;;;;;;0.10;0.10;;;11.70;99.90;;;;;;5026643;28;20049;-71
2023/01/01 04:43:51;;;;;;;0.10;0.10;;;11.80;99.90;;;;;;5026222;28;20060;-71
2023/01/01 04:46:19;;;;;;;1.48;1.38;;;11.80;99.90;;;;;;5027474;28;20041;-71
2023/01/01 04:48:45;;;;;;;0.28;0.28;;;11.70;99.90;;;;;;5024645;28;20056;-71
2023/01/01 04:51:12;;;;;;;15.98;2.63;;;11.70;99.90;;;;;;5026949;28;20042;-71
2023/01/01 04:53:38;;;;;;;0.90;0.90;;;11.70;99.90;;;;;;5027487;28;20104;-71
2023/01/01 04:56:05;;;;;;;0.20;0.20;;;11.60;99.90;;;;;;5027074;28;20053;-71
2023/01/01 04:58:32;;;;;;;0.10;0.10;;;11.60;99.90;;;;;;5028022;28;20116;-71
2023/01/01 05:00:57;;;;;;;0.52;0.52;;;11.60;99.90;;;;;;5027561;28;20099;-71
2023/01/01 05:03:23;;;;;;;0.73;0.73;;;11.60;99.90;;;;;;5025732;28;20057;-72
2023/01/01 05:06:06;;;;;;;3.92;1.85;;;11.60;99.90;;;;;;5026696;28;20044;-71
2023/01/01 05:08:34;;;;;;;0.98;0.85;;;11.60;99.90;;;;;;5025980;28;20045;-71
2023/01/01 05:11:24;;;;;;;0.30;0.30;;;11.60;99.90;;;;;;5027281;28;20060;-71
2023/01/01 05:13:52;;;;;;;0.10;0.10;;;11.70;99.90;;;;;;5025515;28;20053;-71
2023/01/01 05:16:21;;;;;;;1.35;1.00;;;11.70;99.90;;;;;;5017196;28;20853;-71
2023/01/01 05:18:47;;;;;;;0.45;0.45;;;11.60;99.90;;;;;;5028479;28;20049;-71
2023/01/01 05:21:15;;;;;;;0.10;0.10;;;11.70;99.90;;;;;;5026620;28;20049;-71
2023/01/01 05:23:41;;;;;;;0.30;0.30;;;11.70;99.90;;;;;;5024037;28;20053;-71
2023/01/01 05:26:18;;;;;;;1.75;1.40;;;11.70;99.90;;;;;;5026043;28;20444;-71
2023/01/01 05:28:44;;;;;;;15.98;1.77;;;11.60;99.90;;;;;;5027299;28;20037;-71
2023/01/01 05:31:15;;;;;;;4.35;2.00;;;11.70;99.90;;;;;;5015013;28;20052;-71
2023/01/01 05:33:41;;;;;;;0.32;0.32;;;11.60;99.90;;;;;;5029088;28;20048;-71
2023/01/01 05:36:12;;;;;;;0.80;0.80;;;11.60;99.90;;;;;;5025797;28;20089;-71
2023/01/01 05:38:38;;;;;;;0.30;0.30;;;11.70;99.90;;;;;;5023865;28;20564;-71
2023/01/01 05:41:06;;;;;;;1.20;0.85;;;11.60;99.90;;;;;;5026784;28;20128;-71
2023/01/01 05:43:33;;;;;;;0.20;0.20;;;11.60;99.90;;;;;;5025913;28;20041;-71
2023/01/01 05:46:03;;;;;;;0.17;0.17;;;11.50;99.90;;;;;;5027155;28;20696;-70
2023/01/01 05:48:29;;;;;;;0.10;0.10;;;11.50;99.90;;;;;;5026070;28;20057;-71
2023/01/01 05:51:04;;;;;;;1.15;0.68;;;11.50;99.90;;;;;;5024897;28;20473;-71
2023/01/01 05:53:30;;;;;;;0.35;0.35;;;11.40;99.90;;;;;;5026248;28;20041;-71
2023/01/01 05:55:57;;;;;;;0.10;0.10;;;11.40;99.90;;;;;;5027431;28;20508;-70
2023/01/01 05:58:22;;;;;;;0.10;0.10;;;11.40;99.90;;;;;;5028239;28;20041;-71
2023/01/01 06:00:48;;;;;;;0.80;0.68;;;11.30;99.90;;;;;;5023188;28;20293;-70
2023/01/01 06:03:13;;;;;;;3.28;1.30;;;11.30;99.90;;;;;;5025664;28;20049;-70
2023/01/01 06:05:39;;;;;;;5.80;1.98;;;11.30;99.90;;;;;;5025877;28;20120;-70
2023/01/01 06:08:04;;;;;;;0.00;0.00;;;11.30;99.90;;;;;;5025430;28;20083;-70
2023/01/01 06:10:30;;;;;;;0.00;0.00;;;11.20;99.90;;;;;;5025547;28;20132;-70
2023/01/01 06:12:57;;;;;;;1.58;1.48;;;11.20;99.90;;;;;;5025790;28;20064;-70
2023/01/01 06:15:24;;;;;;;0.03;0.03;;;11.20;99.90;;;;;;5023335;28;20083;-71
2023/01/01 06:17:49;;;;;;;1.38;0.70;;;11.20;99.90;;;;;;5025657;28;20136;-70
2023/01/01 06:20:15;;;;;;;0.10;0.10;;;11.20;99.90;;;;;;5025177;28;20120;-71
2023/01/01 06:22:41;;;;;;;0.10;0.10;;;11.10;99.90;;;;;;5024500;28;20038;-71
2023/01/01 06:25:07;;;;;;;0.25;0.25;;;11.20;99.90;;;;;;5024553;28;20091;-70
2023/01/01 06:27:35;;;;;;;4.57;2.80;;;11.20;99.90;;;;;;5026111;28;20041;-70
2023/01/01 06:30:01;;;;;;;7.20;1.75;;;11.20;99.90;;;;;;5025049;28;20037;-71
2023/01/01 06:32:27;;;;;;;0.10;0.10;;;11.20;99.90;;;;;;5026866;28;20045;-71
2023/01/01 06:34:52;;;;;;;3.42;1.23;;;11.20;99.90;;;;;;5024210;28;20091;-70
2023/01/01 06:37:18;;;;;;;0.10;0.10;;;11.20;99.90;;;;;;5024945;28;20029;-70
2023/01/01 06:39:44;;;;;;;0.20;0.20;;;11.20;99.90;;;;;;5026499;28;20053;-71
2023/01/01 06:42:09;;;;;;;0.10;0.10;;;11.20;99.90;;;;;;5025865;28;20037;-70
2023/01/01 06:44:35;;;;;;;1.75;1.65;;;11.20;99.90;;;;;;5025984;28;20099;-70
2023/01/01 06:47:01;;;;;;;0.10;0.10;;;11.20;99.90;;;;;;5025710;28;20049;-70
2023/01/01 06:49:26;;;;;;;0.10;0.10;;;11.20;99.90;;;;;;5026829;28;20048;-71
2023/01/01 06:51:52;;;;;;;0.43;0.43;;;11.20;99.90;;;;;;5026510;28;20045;-70
2023/01/01 06:54:17;;;;;;;1.13;1.13;;;11.20;99.90;;;;;;5027323;28;20050;-70
2023/01/01 06:56:43;;;;;;;0.10;0.10;;;11.20;99.90;;;;;;5020813;28;20042;-70
2023/01/01 06:59:09;;;;;;;1.75;1.00;;;11.20;99.90;;;;;;5026578;28;20416;-70
2023/01/01 07:01:36;;;;;;;0.10;0.10;;;11.10;99.90;;;;;;5019833;28;20047;-70
2023/01/01 07:04:04;;;;;;;0.95;0.95;;;11.10;99.90;;;;;;5020605;28;20096;-70
2023/01/01 07:06:32;;;;;;;0.43;0.43;;;11.10;99.90;;;;;;5025558;28;20540;-70
2023/01/01 07:08:57;;;;;;;0.30;0.30;;;11.10;99.90;;;;;;5022931;28;20516;-69
2023/01/01 07:11:25;;;;;;;6.35;3.60;;;11.10;99.90;;;;;;5026432;28;20124;-70
2023/01/01 07:13:51;;;;;;;29.55;1.48;;;11.00;99.90;;;;;;5024415;28;20069;-70
2023/01/01 07:16:17;;;;;;;0.65;0.65;;;11.10;99.90;;;;;;5025313;28;20080;-70
2023/01/01 07:18:42;;;;;;;0.10;0.10;;;11.00;99.90;;;;;;5025472;28;20041;-70
2023/01/01 07:21:31;;;;;;;0.10;0.10;;;11.00;99.90;;;;;;5025434;28;20064;-70
2023/01/01 07:23:59;;;;;;;2.45;1.00;;;11.00;99.90;;;;;;5026163;28;20117;-70
2023/01/01 07:26:26;;;;;;;0.10;0.10;;;11.00;99.90;;;;;;5025541;28;20068;-71
2023/01/01 07:28:52;;;;;;;0.10;0.10;;;10.90;99.90;;;;;;5024385;28;20113;-70
2023/01/01 07:31:17;;;;;;;0.38;0.38;;;11.00;99.90;;;;;;5024170;28;20045;-70
2023/01/01 07:33:43;;;;;;;0.00;0.00;;;11.00;99.90;;;;;;5027720;28;20041;-70
2023/01/01 07:36:08;;;;;;;0.40;0.40;;;11.00;99.90;;;;;;5028733;28;20116;-70
2023/01/01 07:38:34;;;;;;;0.10;0.10;;;10.90;99.90;;;;;;5028481;28;20107;-70
2023/01/01 07:41:00;;;;;;;0.73;0.73;;;11.00;99.90;;;;;;5027794;28;20060;-69
2023/01/01 07:43:25;;;;;;;0.47;0.40;;;10.90;99.90;;;;;;5026038;28;20096;-70
2023/01/01 07:45:51;;;;;;;0.63;0.63;;;10.90;99.90;;;;;;5027497;28;20042;-70
2023/01/01 07:48:16;;;;;;;0.13;0.13;;;10.90;99.90;;;;;;5030433;28;20137;-70
2023/01/01 07:50:42;;;;;;;15.60;1.65;;;10.90;99.90;;;;;;5029598;28;20399;-70
2023/01/01 07:53:08;;;;;;;1.40;1.35;;;10.90;99.90;;;;;;5027629;28;20060;-70
2023/01/01 07:55:34;;;;;;;0.63;0.63;;;10.90;99.90;;;;;;5029811;28;20055;-71
2023/01/01 07:58:00;;;;;;;0.57;0.57;;;10.90;99.90;;;;;;5029048;28;20697;-70
2023/01/01 08:00:26;;;;;;;1.85;1.17;;;10.90;99.90;;;;;;5029285;28;20490;-71
2023/01/01 08:02:52;;;;;;;3.13;1.90;;;10.90;99.90;;;;;;5029147;28;20037;-70
2023/01/01 08:05:18;;;;;;;9.85;1.50;;;10.90;99.90;;;;;;5029472;28;20041;-70
2023/01/01 08:07:48;;;;;;;0.85;0.85;;;10.90;99.90;;;;;;5026675;28;20044;-70
2023/01/01 08:10:15;;;;;;;1.60;1.45;;;10.90;99.90;;;;;;5028197;28;20041;-71
2023/01/01 08:12:41;;;;;;;19.60;1.33;;;11.00;99.90;;;;;;5028211;28;20041;-71
2023/01/01 08:15:07;;;;;;;2.22;2.05;;;11.00;99.90;;;;;;5028007;28;20547;-70
2023/01/01 08:17:33;;;;;;;4.30;1.08;;;11.00;99.90;;;;;;5015306;28;20033;-71
2023/01/01 08:19:58;;;;;;;0.20;0.20;;;11.00;99.90;;;;;;5027959;28;20121;-71
2023/01/01 08:22:24;;;;;;;1.40;1.30;;;10.90;99.90;;;;;;5029819;28;20448;-71
2023/01/01 08:24:49;;;;;;;0.30;0.30;;;10.90;99.90;;;;;;5026774;28;20075;-71
2023/01/01 08:27:16;;;;;;;0.10;0.10;;;10.90;99.90;;;;;;5022212;28;20045;-71
2023/01/01 08:29:42;;;;;;;1.20;1.15;;;10.90;99.90;;;;;;5023620;28;20407;-70
2023/01/01 08:32:08;;;;;;;1.65;0.65;;;10.90;99.90;;;;;;5027243;28;20072;-70
2023/01/01 08:34:33;;;;;;;6.22;2.40;;;10.90;99.90;;;;;;5029816;28;20045;-70
2023/01/01 08:36:59;;;;;;;0.20;0.20;;;10.90;99.90;;;;;;5029226;28;20044;-70
2023/01/01 08:39:25;;;;;;;0.30;0.30;;;10.90;99.90;;;;;;5025880;28;20517;-68
2023/01/01 08:41:50;;;;;;;0.25;0.25;;;10.90;99.90;;;;;;5028225;28;20045;-68
2023/01/01 08:44:16;;;;;;;2.03;1.90;;;10.90;99.90;;;;;;5021687;28;20826;-69
2023/01/01 08:46:41;;;;;;;0.20;0.20;;;10.90;99.90;;;;;;5026274;28;20045;-70
2023/01/01 08:49:07;;;;;;;0.47;0.47;;;10.80;99.90;;;;;;5023531;28;20049;-68
2023/01/01 08:51:33;;;;;;;0.57;0.57;;;10.90;99.90;;;;;;5028362;28;20045;-68
2023/01/01 08:53:58;;;;;;;0.65;0.65;;;10.80;99.90;;;;;;5028328;28;20048;-68
2023/01/01 08:56:24;;;;;;;0.28;0.28;;;10.80;99.90;;;;;;5021830;28;20473;-70
2023/01/01 08:58:50;;;;;;;0.60;0.57;;;10.90;99.90;;;;;;5027474;28;20030;-69
2023/01/01 09:01:15;;;;;;;0.80;0.80;;;10.80;99.90;;;;;;5026181;28;20168;-68
2023/01/01 09:03:42;;;;;;;9.05;1.60;;;10.80;99.90;;;;;;5026172;28;20088;-69
2023/01/01 09:06:08;;;;;;;0.08;0.08;;;10.80;99.90;;;;;;5028945;28;20045;-68
2023/01/01 09:08:33;;;;;;;0.90;0.90;;;10.80;99.90;;;;;;5025843;28;20049;-68
2023/01/01 09:11:01;;;;;;;0.10;0.10;;;10.70;99.90;;;;;;5029367;28;20077;-68
2023/01/01 09:13:27;;;;;;;0.25;0.25;;;10.70;99.90;;;;;;5027251;28;20045;-70
2023/01/01 09:15:53;;;;;;;33.42;2.95;;;10.70;99.90;;;;;;5029136;28;20048;-70
2023/01/01 09:18:18;;;;;;;1.20;0.63;;;10.70;99.90;;;;;;5021645;28;20054;-68
2023/01/01 09:20:44;;;;;;;0.10;0.10;;;10.70;99.90;;;;;;5022473;28;20473;-69
2023/01/01 09:23:10;;;;;;;10.25;1.00;;;10.70;99.90;;;;;;5025298;28;20049;-66
2023/01/01 09:25:36;;;;;;;0.32;0.32;;;10.70;99.90;;;;;;5026493;28;20127;-68
2023/01/01 09:28:07;;;;;;;7.28;3.35;;;10.80;99.90;;;;;;5025481;28;20869;-68
2023/01/01 09:30:33;;;;;;;1.85;1.70;;;10.80;99.90;;;;;;5024064;28;20059;-68
2023/01/01 09:32:59;;;;;;;0.10;0.10;;;10.70;99.90;;;;;;5018374;28;20041;-68
2023/01/01 09:35:25;;;;;;;1.15;1.08;;;10.80;99.90;;;;;;5027613;28;20179;-68
2023/01/01 09:37:50;;;;;;;0.50;0.50;;;10.80;99.90;;;;;;5025988;28;20116;-68
2023/01/01 09:40:42;;;;;;;2.65;2.03;;;10.90;99.90;;;;;;5023847;28;20511;-68
2023/01/01 09:43:29;;;;;;;0.28;0.28;;;10.90;99.90;;;;;;5016144;28;20136;-67
2023/01/01 09:45:59;;;;;;;1.33;1.05;;;10.90;99.90;;;;;;5027873;28;20042;-68
2023/01/01 09:48:28;;;;;;;1.45;1.20;;;10.90;99.90;;;;;;5019098;28;20114;-68
2023/01/01 09:50:54;;;;;;;0.88;0.85;;;11.00;99.90;;;;;;5021974;28;20064;-68
2023/01/01 09:53:36;;;;;;;0.10;0.10;;;11.00;99.90;;;;;;5025120;28;20045;-68
2023/01/01 09:56:04;;;;;;;0.40;0.40;;;11.00;99.90;;;;;;5016223;28;20044;-68
2023/01/01 09:58:34;;;;;;;0.10;0.10;;;11.00;99.90;;;;;;5022733;28;20493;-68
2023/01/01 10:02:13;;;;;;;0.55;0.55;;;11.00;99.90;;;;;;5027079;28;20045;-68
2023/01/01 10:04:45;;;;;;;1.33;1.08;;;11.00;99.90;;;;;;4947235;29;20051;-68
2023/01/01 10:07:27;;;;;;;1.00;1.00;;;11.10;99.90;;;;;;4996292;28;20116;-68
2023/01/01 10:10:02;;;;;;;0.30;0.30;;;11.10;99.90;;;;;;5022431;28;20096;-68
2023/01/01 10:12:53;;;;;;;0.10;0.10;;;11.20;99.90;;;;;;5026970;28;20055;-68
2023/01/01 10:15:21;;;;;;;0.47;0.47;;;11.20;99.90;;;;;;5027722;28;20057;-68
2023/01/01 10:17:50;;;;;;;1.25;1.17;;;11.20;99.90;;;;;;5023287;28;20049;-68
2023/01/01 10:20:29;;;;;;;0.65;0.65;;;11.20;99.90;;;;;;5019762;28;20045;-68
2023/01/01 10:23:06;;;;;;;28.35;0.88;;;11.30;99.90;;;;;;5019899;28;20046;-68
2023/01/01 10:25:34;;;;;;;2.00;1.85;;;11.30;99.90;;;;;;5022297;28;20048;-68
2023/01/01 10:28:12;;;;;;;10.48;2.40;;;11.30;99.90;;;;;;5025782;28;20378;-68
2023/01/01 10:30:40;;;;;;;0.32;0.32;;;11.30;99.90;;;;;;5027463;28;20061;-68
2023/01/01 10:33:11;;;;;;;0.00;0.00;;;11.30;99.90;;;;;;5017050;28;20037;-67
2023/01/01 10:35:41;;;;;;;0.65;0.45;;;11.40;99.90;;;;;;5026400;28;20179;-68
2023/01/01 10:38:07;;;;;;;1.02;0.77;;;11.40;99.90;;;;;;5023138;28;20049;-69
2023/01/01 10:40:33;;;;;;;0.20;0.20;;;11.40;99.90;;;;;;5023060;28;20056;-67
2023/01/01 10:43:01;;;;;;;0.50;0.50;;;11.40;99.90;;;;;;5027827;28;20073;-67
2023/01/01 10:45:45;;;;;;;0.60;0.50;;;11.40;99.90;;;;;;5026311;28;20056;-69
2023/01/01 10:48:15;;;;;;;0.10;0.10;;;11.50;99.90;;;;;;5019747;28;20131;-70
2023/01/01 10:50:44;;;;;;;2.25;0.80;;;11.50;99.90;;;;;;5025406;28;20120;-68
2023/01/01 10:53:26;;;;;;;0.75;0.70;;;11.40;99.90;;;;;;5021665;28;20076;-69
2023/01/01 10:56:02;;;;;;;3.60;1.45;;;11.40;99.90;;;;;;5024851;28;20080;-69
2023/01/01 10:58:41;;;;;;;0.20;0.20;;;11.40;99.90;;;;;;5022171;28;20046;-68
2023/01/01 11:01:17;;;;;;;1.35;1.27;;;11.50;99.90;;;;;;5026983;28;20095;-69
2023/01/01 11:04:00;;;;;;;0.00;0.00;;;11.40;99.90;;;;;;5021303;28;20050;-69
2023/01/01 11:06:42;;;;;;;0.10;0.10;;;11.40;99.90;;;;;;5027152;28;20061;-69
2023/01/01 11:09:26;;;;;;;0.57;0.47;;;11.40;99.90;;;;;;5029164;28;20440;-69
2023/01/01 11:12:03;;;;;;;4.78;1.95;;;11.40;99.90;;;;;;5030027;28;20044;-69
2023/01/01 11:14:52;;;;;;;0.10;0.10;;;11.40;99.90;;;;;;5029604;28;20057;-69
2023/01/01 11:17:30;;;;;;;0.10;0.10;;;11.40;99.90;;;;;;5028243;28;20060;-69
2023/01/01 11:19:57;;;;;;;0.85;0.85;;;11.40;99.90;;;;;;5046359;28;20049;-68
2023/01/01 11:22:51;;;;;;;0.55;0.55;;;11.40;99.90;;;;;;5031134;28;20048;-68
2023/01/01 11:25:19;;;;;;;0.10;0.10;;;11.40;99.90;;;;;;5022610;28;20049;-70
2023/01/01 11:27:45;;;;;;;3.88;2.22;;;11.40;99.90;;;;;;5029221;28;20053;-70
2023/01/01 11:30:37;;;;;;;0.38;0.38;;;11.40;99.90;;;;;;5029937;28;20045;-69
2023/01/01 11:33:04;;;;;;;0.10;0.10;;;11.40;99.90;;;;;;5026807;28;20045;-70
2023/01/01 11:35:35;;;;;;;0.08;0.08;;;11.50;99.90;;;;;;5031665;28;20451;-69
2023/01/01 11:38:02;;;;;;;1.65;1.40;;;11.40;99.90;;;;;;5028968;28;20076;-69
2023/01/01 11:40:37;;;;;;;1.45;0.80;;;11.50;99.90;;;;;;5031199;28;20073;-69
2023/01/01 11:43:05;;;;;;;7.63;3.08;;;11.50;99.90;;;;;;5030108;28;20448;-69
2023/01/01 11:45:33;;;;;;;28.42;1.95;;;11.50;99.90;;;;;;5027762;28;20077;-69
2023/01/01 11:48:08;;;;;;;3.92;3.03;;;11.60;99.90;;;;;;5029828;28;20136;-69
2023/01/01 11:50:36;;;;;;;1.65;1.38;;;11.60;99.90;;;;;;5030379;28;20069;-69
2023/01/01 11:53:20;;;;;;;1.45;0.95;;;11.50;99.90;;;;;;5028615;28;20687;-69
2023/01/01 11:55:49;;;;;;;0.10;0.10;;;11.60;99.90;;;;;;5029172;28;20041;-69
2023/01/01 11:58:41;;;;;;;1.40;0.77;;;11.50;99.90;;;;;;5025086;28;20085;-69
2023/01/01 12:01:25;;;;;;;0.63;0.63;;;11.50;99.90;;;;;;5016217;28;20128;-69
2023/01/01 12:04:20;;;;;;;0.57;0.57;;;11.50;99.90;;;;;;5024815;28;20136;-69
2023/01/01 12:07:04;;;;;;;3.20;1.48;;;11.50;99.90;;;;;;5014331;28;20052;-69
2023/01/01 12:09:40;;;;;;;0.25;0.25;;;11.50;99.90;;;;;;5018191;28;20091;-69
2023/01/01 12:12:27;;;;;;;0.30;0.30;;;11.50;99.90;;;;;;5018691;28;20120;-69
2023/01/01 12:15:02;;;;;;;1.35;0.63;;;11.60;99.90;;;;;;5018527;28;20078;-69
2023/01/01 12:17:40;;;;;;;1.88;1.35;;;11.60;99.90;;;;;;5019947;28;20051;-68
2023/01/01 12:20:38;;;;;;;0.00;0.00;;;11.60;99.90;;;;;;5020112;28;20042;-69
2023/01/01 12:23:03;;;;;;;2.05;1.88;;;11.80;99.90;;;;;;5016946;28;20064;-69
2023/01/01 12:25:42;;;;;;;0.10;0.10;;;11.80;99.90;;;;;;5023071;28;20041;-69
2023/01/01 12:28:32;;;;;;;8.23;2.88;;;11.90;99.90;;;;;;5030532;28;20064;-69
2023/01/01 12:31:26;;;;;;;0.08;0.08;;;12.00;99.90;;;;;;5024425;28;20052;-69
2023/01/01 12:34:08;;;;;;;0.55;0.55;;;12.10;99.90;;;;;;5009874;28;20057;-69
2023/01/01 12:36:55;;;;;;;1.50;1.40;;;12.20;99.90;;;;;;5030144;28;20132;-69
2023/01/01 12:39:41;;;;;;;0.00;0.00;;;12.10;99.90;;;;;;5012214;28;20099;-69
2023/01/01 12:42:13;;;;;;;2.53;1.75;;;12.10;99.90;;;;;;5029459;28;20052;-69
2023/01/01 12:45:09;;;;;;;0.00;0.00;;;12.10;99.90;;;;;;5018945;28;20048;-68
2023/01/01 12:47:55;;;;;;;0.10;0.10;;;12.00;99.90;;;;;;5010460;28;20053;-68
2023/01/01 12:50:48;;;;;;;0.40;0.40;;;11.90;99.90;;;;;;5020298;28;20500;-69
2023/01/01 12:53:20;;;;;;;0.20;0.20;;;11.90;99.90;;;;;;5026048;28;20077;-69
2023/01/01 12:56:08;;;;;;;0.10;0.10;;;11.90;99.90;;;;;;5030987;28;20133;-69
2023/01/01 12:58:45;;;;;;;0.95;0.93;;;11.80;99.90;;;;;;5030323;28;20061;-69
2023/01/01 13:01:19;;;;;;;4.22;2.08;;;11.80;99.90;;;;;;5031016;28;20049;-69
2023/01/01 13:03:50;;;;;;;5.32;1.70;;;11.90;99.90;;;;;;5029459;28;20436;-69
2023/01/01 13:06:19;;;;;;;1.17;0.50;;;11.90;99.90;;;;;;5032286;28;20050;-69
2023/01/01 13:08:50;;;;;;;0.10;0.10;;;11.90;99.90;;;;;;5030896;28;20100;-69
2023/01/01 13:11:16;;;;;;;9.48;2.90;;;11.90;99.90;;;;;;5032315;28;20436;-69